createdAt,value
2022-08-26T00:00:13.921Z,1006.48
2022-08-26T00:01:13.903Z,1006.55
2022-08-26T00:02:13.911Z,1006.47
2022-08-26T00:03:13.885Z,1006.42
2022-08-26T00:04:13.966Z,1006.46
2022-08-26T00:05:13.885Z,1006.49
2022-08-26T00:06:13.852Z,1006.43
2022-08-26T00:07:13.838Z,1006.46
2022-08-26T00:08:13.834Z,1006.46
2022-08-26T00:09:13.838Z,1006.51
2022-08-26T00:10:13.818Z,1006.43
2022-08-26T00:11:13.836Z,1006.51
2022-08-26T00:12:13.793Z,1006.46
2022-08-26T00:13:13.777Z,1006.44
2022-08-26T00:14:13.939Z,1006.46
2022-08-26T00:15:13.757Z,1006.42
2022-08-26T00:16:13.783Z,1006.45
2022-08-26T00:17:13.764Z,1006.41
2022-08-26T00:18:22.017Z,1006.42
2022-08-26T00:19:14.781Z,1006.43
2022-08-26T00:20:13.708Z,1006.44
2022-08-26T00:21:13.699Z,1006.41
2022-08-26T00:22:13.688Z,1006.43
2022-08-26T00:23:15.803Z,1006.39
2022-08-26T00:24:13.671Z,1006.35
2022-08-26T00:25:13.656Z,1006.39
2022-08-26T00:26:13.649Z,1006.39
2022-08-26T00:27:13.639Z,1006.39
2022-08-26T00:28:13.631Z,1006.33
2022-08-26T00:29:13.651Z,1006.36
2022-08-26T00:30:13.609Z,1006.34
2022-08-26T00:31:13.597Z,1006.36
2022-08-26T00:32:13.590Z,1006.35
2022-08-26T00:33:13.580Z,1006.36
2022-08-26T00:34:13.913Z,1006.37
2022-08-26T00:35:13.581Z,1006.39
2022-08-26T00:36:20.257Z,1006.40
2022-08-26T00:37:16.256Z,1006.43
2022-08-26T00:38:13.531Z,1006.40
2022-08-26T00:39:13.513Z,1006.40
2022-08-26T00:40:13.542Z,1006.39
2022-08-26T00:41:13.521Z,1006.35
2022-08-26T00:42:13.485Z,1006.37
2022-08-26T00:43:13.474Z,1006.38
2022-08-26T00:44:13.467Z,1006.40
2022-08-26T00:45:13.453Z,1006.31
2022-08-26T00:46:13.500Z,1006.32
2022-08-26T00:47:13.463Z,1006.35
2022-08-26T00:48:13.425Z,1006.31
2022-08-26T00:49:13.414Z,1006.32
2022-08-26T00:50:13.402Z,1006.28
2022-08-26T00:51:13.386Z,1006.27
2022-08-26T00:52:13.385Z,1006.27
2022-08-26T00:53:13.396Z,1006.23
2022-08-26T00:54:13.364Z,1006.25
2022-08-26T00:55:15.434Z,1006.27
2022-08-26T00:56:14.338Z,1006.23
2022-08-26T00:57:16.339Z,1006.23
2022-08-26T00:58:13.318Z,1006.31
2022-08-26T00:59:13.328Z,1006.28
2022-08-26T01:00:13.297Z,1006.26
2022-08-26T01:01:13.300Z,1006.31
2022-08-26T01:02:20.967Z,1006.29
2022-08-26T01:03:14.261Z,1006.30
2022-08-26T01:04:13.259Z,1006.27
2022-08-26T01:05:13.268Z,1006.26
2022-08-26T01:06:13.268Z,1006.27
2022-08-26T01:07:13.229Z,1006.25
2022-08-26T01:08:13.218Z,1006.21
2022-08-26T01:09:13.200Z,1006.18
2022-08-26T01:10:13.201Z,1006.13
2022-08-26T01:11:13.200Z,1006.20
2022-08-26T01:12:13.171Z,1006.14
2022-08-26T01:13:13.159Z,1006.13
2022-08-26T01:14:13.164Z,1006.18
2022-08-26T01:15:13.133Z,1006.13
2022-08-26T01:16:13.199Z,1006.19
2022-08-26T01:17:13.144Z,1006.17
2022-08-26T01:18:13.112Z,1006.16
2022-08-26T01:19:13.101Z,1006.15
2022-08-26T01:20:13.092Z,1006.15
2022-08-26T01:21:13.071Z,1006.17
2022-08-26T01:22:13.070Z,1006.18
2022-08-26T01:23:13.085Z,1006.17
2022-08-26T01:24:14.064Z,1006.23
2022-08-26T01:25:13.035Z,1006.25
2022-08-26T01:26:19.665Z,1006.20
2022-08-26T01:27:14.014Z,1006.16
2022-08-26T01:28:13.005Z,1006.18
2022-08-26T01:29:13.034Z,1006.16
2022-08-26T01:30:12.985Z,1006.17
2022-08-26T01:31:14.723Z,1006.14
2022-08-26T01:32:12.963Z,1006.18
2022-08-26T01:33:12.946Z,1006.16
2022-08-26T01:34:12.944Z,1006.12
2022-08-26T01:35:12.967Z,1006.14
2022-08-26T01:36:12.927Z,1006.11
2022-08-26T01:37:15.665Z,1006.16
2022-08-26T01:38:12.898Z,1006.19
2022-08-26T01:39:12.880Z,1006.12
2022-08-26T01:40:12.924Z,1006.13
2022-08-26T01:41:16.166Z,1006.15
2022-08-26T01:42:13.861Z,1006.15
2022-08-26T01:43:12.858Z,1006.13
2022-08-26T01:44:12.839Z,1006.15
2022-08-26T01:45:12.820Z,1006.14
2022-08-26T01:46:12.834Z,1006.18
2022-08-26T01:47:12.830Z,1006.09
2022-08-26T01:48:12.800Z,1006.13
2022-08-26T01:49:12.780Z,1006.07
2022-08-26T01:50:12.780Z,1006.11
2022-08-26T01:51:12.763Z,1006.09
2022-08-26T01:52:12.752Z,1006.07
2022-08-26T01:53:12.770Z,1006.08
2022-08-26T01:54:13.757Z,1006.09
2022-08-26T01:55:12.720Z,1006.03
2022-08-26T01:56:12.713Z,1006.03
2022-08-26T01:57:12.702Z,1006.04
2022-08-26T01:58:12.694Z,1006.04
2022-08-26T01:59:12.703Z,1006.00
2022-08-26T02:00:12.673Z,1006.00
2022-08-26T02:01:12.738Z,1006.00
2022-08-26T02:02:12.652Z,1005.98
2022-08-26T02:03:12.638Z,1005.95
2022-08-26T02:04:12.683Z,1005.97
2022-08-26T02:05:12.637Z,1005.94
2022-08-26T02:06:12.607Z,1005.97
2022-08-26T02:07:12.600Z,1005.98
2022-08-26T02:08:12.587Z,1005.99
2022-08-26T02:09:12.574Z,1005.97
2022-08-26T02:10:12.571Z,1005.96
2022-08-26T02:11:12.577Z,1006.00
2022-08-26T02:12:12.546Z,1005.99
2022-08-26T02:13:12.528Z,1005.95
2022-08-26T02:14:12.527Z,1005.93
2022-08-26T02:15:12.518Z,1006.00
2022-08-26T02:16:12.554Z,1005.95
2022-08-26T02:17:12.519Z,1005.95
2022-08-26T02:18:13.973Z,1006.00
2022-08-26T02:19:17.118Z,1006.01
2022-08-26T02:20:13.337Z,1005.95
2022-08-26T02:21:12.445Z,1006.04
2022-08-26T02:22:12.439Z,1006.02
2022-08-26T02:23:12.451Z,1006.05
2022-08-26T02:24:12.418Z,1006.03
2022-08-26T02:25:12.407Z,1006.03
2022-08-26T02:26:12.397Z,1005.99
2022-08-26T02:27:13.380Z,1005.99
2022-08-26T02:28:12.379Z,1005.99
2022-08-26T02:29:12.407Z,1005.95
2022-08-26T02:30:12.358Z,1005.98
2022-08-26T02:31:12.375Z,1005.90
2022-08-26T02:32:12.339Z,1005.93
2022-08-26T02:33:13.323Z,1005.95
2022-08-26T02:34:12.326Z,1005.94
2022-08-26T02:35:12.333Z,1005.91
2022-08-26T02:36:12.294Z,1005.86
2022-08-26T02:37:12.284Z,1005.89
2022-08-26T02:38:12.273Z,1005.93
2022-08-26T02:39:12.254Z,1005.95
2022-08-26T02:40:12.279Z,1005.94
2022-08-26T02:41:12.275Z,1005.97
2022-08-26T02:42:12.226Z,1005.89
2022-08-26T02:43:12.215Z,1005.99
2022-08-26T02:44:12.205Z,1005.87
2022-08-26T02:45:12.196Z,1005.91
2022-08-26T02:46:12.213Z,1005.92
2022-08-26T02:47:13.249Z,1005.91
2022-08-26T02:48:12.166Z,1005.89
2022-08-26T02:49:12.154Z,1005.86
2022-08-26T02:50:12.147Z,1005.86
2022-08-26T02:51:12.137Z,1005.89
2022-08-26T02:52:12.129Z,1005.87
2022-08-26T02:53:12.139Z,1005.90
2022-08-26T02:54:12.107Z,1005.87
2022-08-26T02:55:12.089Z,1005.92
2022-08-26T02:56:12.078Z,1005.89
2022-08-26T02:57:12.081Z,1005.83
2022-08-26T02:58:12.066Z,1005.82
2022-08-26T02:59:12.080Z,1005.80
2022-08-26T03:00:12.048Z,1005.79
2022-08-26T03:01:12.100Z,1005.80
2022-08-26T03:02:12.051Z,1005.80
2022-08-26T03:03:12.009Z,1005.79
2022-08-26T03:04:12.156Z,1005.77
2022-08-26T03:05:12.020Z,1005.76
2022-08-26T03:06:11.984Z,1005.76
2022-08-26T03:07:11.969Z,1005.75
2022-08-26T03:08:11.966Z,1005.70
2022-08-26T03:09:18.842Z,1005.71
2022-08-26T03:10:12.971Z,1005.72
2022-08-26T03:11:11.923Z,1005.71
2022-08-26T03:12:11.921Z,1005.71
2022-08-26T03:13:11.904Z,1005.69
2022-08-26T03:14:11.900Z,1005.70
2022-08-26T03:15:17.339Z,1005.71
2022-08-26T03:16:12.900Z,1005.68
2022-08-26T03:17:11.812Z,1005.66
2022-08-26T03:18:11.804Z,1005.69
2022-08-26T03:19:11.783Z,1005.69
2022-08-26T03:20:11.785Z,1005.67
2022-08-26T03:21:11.773Z,1005.65
2022-08-26T03:22:11.784Z,1005.65
2022-08-26T03:23:11.757Z,1005.62
2022-08-26T03:24:11.742Z,1005.61
2022-08-26T03:25:11.732Z,1005.63
2022-08-26T03:26:11.724Z,1005.62
2022-08-26T03:27:11.707Z,1005.61
2022-08-26T03:28:11.742Z,1005.60
2022-08-26T03:29:11.686Z,1005.62
2022-08-26T03:30:12.006Z,1005.61
2022-08-26T03:31:11.720Z,1005.56
2022-08-26T03:32:11.657Z,1005.60
2022-08-26T03:33:11.649Z,1005.59
2022-08-26T03:34:11.667Z,1005.55
2022-08-26T03:35:11.630Z,1005.54
2022-08-26T03:36:11.619Z,1005.57
2022-08-26T03:37:11.607Z,1005.59
2022-08-26T03:38:11.609Z,1005.59
2022-08-26T03:39:11.579Z,1005.58
2022-08-26T03:40:11.752Z,1005.56
2022-08-26T03:41:11.568Z,1005.59
2022-08-26T03:42:11.549Z,1005.54
2022-08-26T03:43:11.540Z,1005.52
2022-08-26T03:44:11.532Z,1005.55
2022-08-26T03:45:11.521Z,1005.54
2022-08-26T03:46:11.586Z,1005.60
2022-08-26T03:47:11.501Z,1005.61
2022-08-26T03:48:11.497Z,1005.61
2022-08-26T03:49:11.493Z,1005.60
2022-08-26T03:50:11.510Z,1005.58
2022-08-26T03:51:11.523Z,1005.61
2022-08-26T03:52:11.493Z,1005.56
2022-08-26T03:53:12.814Z,1005.55
2022-08-26T03:54:11.423Z,1005.51
2022-08-26T03:55:11.439Z,1005.48
2022-08-26T03:56:11.412Z,1005.47
2022-08-26T03:57:11.404Z,1005.49
2022-08-26T03:58:11.541Z,1005.47
2022-08-26T03:59:11.385Z,1005.47
2022-08-26T04:00:11.363Z,1005.48
2022-08-26T04:01:11.364Z,1005.54
2022-08-26T04:02:11.947Z,1005.55
2022-08-26T04:03:14.643Z,1005.52
2022-08-26T04:04:12.479Z,1005.53
2022-08-26T04:05:11.324Z,1005.53
2022-08-26T04:06:11.306Z,1005.56
2022-08-26T04:07:11.305Z,1005.53
2022-08-26T04:08:11.287Z,1005.57
2022-08-26T04:09:11.287Z,1005.54
2022-08-26T04:10:11.297Z,1005.58
2022-08-26T04:11:11.264Z,1005.62
2022-08-26T04:12:11.246Z,1005.59
2022-08-26T04:13:11.246Z,1005.62
2022-08-26T04:14:11.228Z,1005.63
2022-08-26T04:15:11.218Z,1005.62
2022-08-26T04:16:11.273Z,1005.61
2022-08-26T04:17:11.200Z,1005.65
2022-08-26T04:18:11.177Z,1005.62
2022-08-26T04:19:11.178Z,1005.62
2022-08-26T04:20:11.168Z,1005.64
2022-08-26T04:21:11.157Z,1005.66
2022-08-26T04:22:11.170Z,1005.65
2022-08-26T04:23:11.138Z,1005.66
2022-08-26T04:24:12.298Z,1005.69
2022-08-26T04:25:11.117Z,1005.69
2022-08-26T04:26:11.109Z,1005.68
2022-08-26T04:27:11.099Z,1005.75
2022-08-26T04:28:11.112Z,1005.74
2022-08-26T04:29:11.071Z,1005.71
2022-08-26T04:30:11.064Z,1005.77
2022-08-26T04:31:11.082Z,1005.81
2022-08-26T04:32:11.041Z,1005.79
2022-08-26T04:33:12.734Z,1005.80
2022-08-26T04:34:11.208Z,1005.77
2022-08-26T04:35:11.013Z,1005.73
2022-08-26T04:36:11.001Z,1005.81
2022-08-26T04:37:10.991Z,1005.75
2022-08-26T04:38:10.974Z,1005.80
2022-08-26T04:39:10.964Z,1005.81
2022-08-26T04:40:11.025Z,1005.78
2022-08-26T04:41:15.569Z,1005.81
2022-08-26T04:42:11.935Z,1005.81
2022-08-26T04:43:10.937Z,1005.84
2022-08-26T04:44:10.916Z,1005.79
2022-08-26T04:45:11.790Z,1005.79
2022-08-26T04:46:10.962Z,1005.78
2022-08-26T04:47:10.884Z,1005.75
2022-08-26T04:48:11.149Z,1005.76
2022-08-26T04:49:10.865Z,1005.78
2022-08-26T04:50:10.891Z,1005.80
2022-08-26T04:51:10.838Z,1005.75
2022-08-26T04:52:10.867Z,1005.78
2022-08-26T04:53:10.819Z,1005.77
2022-08-26T04:54:10.807Z,1005.76
2022-08-26T04:55:10.802Z,1005.69
2022-08-26T04:56:10.790Z,1005.72
2022-08-26T04:57:10.778Z,1005.68
2022-08-26T04:58:10.798Z,1005.77
2022-08-26T04:59:16.797Z,1005.73
2022-08-26T05:00:11.749Z,1005.78
2022-08-26T05:01:10.770Z,1005.74
2022-08-26T05:02:10.728Z,1005.75
2022-08-26T05:03:10.833Z,1005.74
2022-08-26T05:04:10.764Z,1005.77
2022-08-26T05:05:10.692Z,1005.78
2022-08-26T05:06:10.681Z,1005.72
2022-08-26T05:07:10.681Z,1005.80
2022-08-26T05:08:11.289Z,1005.77
2022-08-26T05:09:10.655Z,1005.83
2022-08-26T05:10:10.672Z,1005.80
2022-08-26T05:11:10.634Z,1005.81
2022-08-26T05:12:10.623Z,1005.76
2022-08-26T05:13:12.092Z,1005.80
2022-08-26T05:14:10.611Z,1005.80
2022-08-26T05:15:10.596Z,1005.79
2022-08-26T05:16:11.579Z,1005.79
2022-08-26T05:17:10.583Z,1005.77
2022-08-26T05:18:10.574Z,1005.76
2022-08-26T05:19:10.546Z,1005.78
2022-08-26T05:20:10.546Z,1005.72
2022-08-26T05:21:10.535Z,1005.72
2022-08-26T05:22:10.556Z,1005.72
2022-08-26T05:23:10.567Z,1005.72
2022-08-26T05:24:10.506Z,1005.74
2022-08-26T05:25:10.487Z,1005.73
2022-08-26T05:26:10.499Z,1005.75
2022-08-26T05:27:11.611Z,1005.77
2022-08-26T05:28:10.497Z,1005.76
2022-08-26T05:29:10.457Z,1005.73
2022-08-26T05:30:10.446Z,1005.76
2022-08-26T05:31:10.449Z,1005.71
2022-08-26T05:32:11.265Z,1005.70
2022-08-26T05:33:10.588Z,1005.82
2022-08-26T05:34:10.429Z,1005.80
2022-08-26T05:35:10.391Z,1005.82
2022-08-26T05:36:10.380Z,1005.85
2022-08-26T05:37:10.371Z,1005.81
2022-08-26T05:38:12.617Z,1005.82
2022-08-26T05:39:10.760Z,1005.77
2022-08-26T05:40:10.425Z,1005.76
2022-08-26T05:41:10.332Z,1005.82
2022-08-26T05:42:10.321Z,1005.77
2022-08-26T05:43:10.387Z,1005.77
2022-08-26T05:44:10.293Z,1005.79
2022-08-26T05:45:10.284Z,1005.76
2022-08-26T05:46:10.357Z,1005.77
2022-08-26T05:47:10.263Z,1005.73
2022-08-26T05:48:10.273Z,1005.73
2022-08-26T05:49:12.503Z,1005.74
2022-08-26T05:50:10.235Z,1005.75
2022-08-26T05:51:10.215Z,1005.74
2022-08-26T05:52:10.233Z,1005.73
2022-08-26T05:53:10.237Z,1005.67
2022-08-26T05:54:10.263Z,1005.65
2022-08-26T05:55:10.185Z,1005.67
2022-08-26T05:56:10.168Z,1005.68
2022-08-26T05:57:10.165Z,1005.65
2022-08-26T05:58:10.180Z,1005.63
2022-08-26T05:59:14.445Z,1005.66
2022-08-26T06:00:10.128Z,1005.64
2022-08-26T06:01:10.225Z,1005.65
2022-08-26T06:02:10.107Z,1005.69
2022-08-26T06:03:10.328Z,1005.65
2022-08-26T06:04:10.108Z,1005.64
2022-08-26T06:05:10.076Z,1005.65
2022-08-26T06:06:10.059Z,1005.60
2022-08-26T06:07:11.556Z,1005.59
2022-08-26T06:08:10.047Z,1005.56
2022-08-26T06:09:11.158Z,1005.54
2022-08-26T06:10:30.977Z,1005.52
2022-08-26T06:11:18.289Z,1005.47
2022-08-26T06:12:11.008Z,1005.49
2022-08-26T06:13:11.923Z,1005.51
2022-08-26T06:14:09.983Z,1005.49
2022-08-26T06:15:09.971Z,1005.51
2022-08-26T06:16:10.056Z,1005.50
2022-08-26T06:17:09.951Z,1005.48
2022-08-26T06:18:09.950Z,1005.52
2022-08-26T06:19:11.043Z,1005.48
2022-08-26T06:20:09.923Z,1005.46
2022-08-26T06:21:09.903Z,1005.48
2022-08-26T06:22:09.924Z,1005.48
2022-08-26T06:23:10.045Z,1005.47
2022-08-26T06:24:09.875Z,1005.47
2022-08-26T06:25:09.991Z,1005.43
2022-08-26T06:26:11.070Z,1005.49
2022-08-26T06:27:09.846Z,1005.46
2022-08-26T06:28:09.867Z,1005.46
2022-08-26T06:29:09.833Z,1005.47
2022-08-26T06:30:09.825Z,1005.42
2022-08-26T06:31:09.841Z,1005.46
2022-08-26T06:32:09.804Z,1005.45
2022-08-26T06:33:09.939Z,1005.44
2022-08-26T06:34:10.921Z,1005.41
2022-08-26T06:35:12.231Z,1005.41
2022-08-26T06:36:09.791Z,1005.37
2022-08-26T06:37:09.746Z,1005.39
2022-08-26T06:38:09.743Z,1005.34
2022-08-26T06:39:09.726Z,1005.35
2022-08-26T06:40:09.801Z,1005.34
2022-08-26T06:41:09.700Z,1005.33
2022-08-26T06:42:11.786Z,1005.32
2022-08-26T06:43:09.924Z,1005.30
2022-08-26T06:44:09.673Z,1005.30
2022-08-26T06:45:09.660Z,1005.27
2022-08-26T06:46:10.011Z,1005.27
2022-08-26T06:47:09.639Z,1005.24
2022-08-26T06:48:09.632Z,1005.34
2022-08-26T06:49:09.613Z,1005.21
2022-08-26T06:50:09.622Z,1005.26
2022-08-26T06:51:09.601Z,1005.28
2022-08-26T06:52:09.622Z,1005.17
2022-08-26T06:53:09.634Z,1005.19
2022-08-26T06:54:09.565Z,1005.19
2022-08-26T06:55:09.560Z,1005.11
2022-08-26T06:56:09.545Z,1005.13
2022-08-26T06:57:09.537Z,1005.14
2022-08-26T06:58:09.557Z,1005.10
2022-08-26T06:59:09.516Z,1005.14
2022-08-26T07:00:09.535Z,1005.13
2022-08-26T07:01:11.598Z,1005.13
2022-08-26T07:02:09.586Z,1005.20
2022-08-26T07:03:09.676Z,1005.20
2022-08-26T07:04:10.523Z,1005.15
2022-08-26T07:05:09.458Z,1005.17
2022-08-26T07:06:09.440Z,1005.16
2022-08-26T07:07:09.695Z,1005.19
2022-08-26T07:08:09.483Z,1005.21
2022-08-26T07:09:09.972Z,1005.15
2022-08-26T07:10:09.421Z,1005.18
2022-08-26T07:11:09.390Z,1005.16
2022-08-26T07:12:09.381Z,1005.14
2022-08-26T07:13:09.565Z,1005.12
2022-08-26T07:14:09.362Z,1005.19
2022-08-26T07:15:09.350Z,1005.15
2022-08-26T07:16:09.391Z,1005.16
2022-08-26T07:17:13.713Z,1005.18
2022-08-26T07:18:10.322Z,1005.27
2022-08-26T07:19:11.057Z,1005.25
2022-08-26T07:20:09.302Z,1005.21
2022-08-26T07:21:09.286Z,1005.19
2022-08-26T07:22:09.306Z,1005.20
2022-08-26T07:23:10.081Z,1005.22
2022-08-26T07:24:09.267Z,1005.24
2022-08-26T07:25:09.248Z,1005.24
2022-08-26T07:26:09.238Z,1005.22
2022-08-26T07:27:09.227Z,1005.26
2022-08-26T07:28:09.238Z,1005.20
2022-08-26T07:29:09.209Z,1005.25
2022-08-26T07:30:09.198Z,1005.28
2022-08-26T07:31:09.653Z,1005.25
2022-08-26T07:32:09.182Z,1005.27
2022-08-26T07:33:09.322Z,1005.28
2022-08-26T07:34:09.181Z,1005.29
2022-08-26T07:35:09.144Z,1005.30
2022-08-26T07:36:09.134Z,1005.35
2022-08-26T07:37:09.119Z,1005.26
2022-08-26T07:38:09.112Z,1005.32
2022-08-26T07:39:09.105Z,1005.28
2022-08-26T07:40:09.212Z,1005.27
2022-08-26T07:41:09.094Z,1005.25
2022-08-26T07:42:09.075Z,1005.19
2022-08-26T07:43:09.276Z,1005.23
2022-08-26T07:44:09.044Z,1005.23
2022-08-26T07:45:09.052Z,1005.28
2022-08-26T07:46:11.288Z,1005.28
2022-08-26T07:47:24.165Z,1005.29
2022-08-26T07:48:10.006Z,1005.25
2022-08-26T07:49:09.061Z,1005.24
2022-08-26T07:50:08.986Z,1005.21
2022-08-26T07:51:08.976Z,1005.22
2022-08-26T07:52:09.007Z,1005.19
2022-08-26T07:53:10.609Z,1005.19
2022-08-26T07:54:08.958Z,1005.21
2022-08-26T07:55:08.939Z,1005.24
2022-08-26T07:56:08.930Z,1005.17
2022-08-26T07:57:09.381Z,1005.23
2022-08-26T07:58:08.931Z,1005.09
2022-08-26T07:59:13.948Z,1005.17
2022-08-26T08:00:09.888Z,1005.08
2022-08-26T08:01:08.942Z,1005.13
2022-08-26T08:02:08.872Z,1005.20
2022-08-26T08:03:08.993Z,1005.16
2022-08-26T08:04:08.869Z,1005.14
2022-08-26T08:05:08.912Z,1005.19
2022-08-26T08:06:08.822Z,1005.16
2022-08-26T08:07:11.487Z,1005.13
2022-08-26T08:08:26.942Z,1005.07
2022-08-26T08:09:09.836Z,1005.08
2022-08-26T08:10:11.365Z,1005.14
2022-08-26T08:11:09.877Z,1005.12
2022-08-26T08:12:08.766Z,1005.09
2022-08-26T08:13:10.051Z,1005.06
2022-08-26T08:14:08.805Z,1005.12
2022-08-26T08:15:08.756Z,1005.11
2022-08-26T08:16:12.444Z,1005.11
2022-08-26T08:17:08.891Z,1005.09
2022-08-26T08:18:15.523Z,1005.05
2022-08-26T08:19:09.689Z,1005.03
2022-08-26T08:20:08.680Z,1005.03
2022-08-26T08:21:20.900Z,1005.02
2022-08-26T08:22:17.436Z,1005.00
2022-08-26T08:23:09.642Z,1005.01
2022-08-26T08:24:08.631Z,1004.99
2022-08-26T08:25:10.579Z,1005.05
2022-08-26T08:26:08.625Z,1005.06
2022-08-26T08:27:08.673Z,1005.08
2022-08-26T08:28:08.691Z,1005.04
2022-08-26T08:29:08.610Z,1005.04
2022-08-26T08:30:08.572Z,1005.06
2022-08-26T08:31:08.638Z,1005.08
2022-08-26T08:32:11.532Z,1005.04
2022-08-26T08:33:09.564Z,1005.06
2022-08-26T08:34:08.535Z,1005.02
2022-08-26T08:35:10.712Z,1005.00
2022-08-26T08:36:09.229Z,1005.02
2022-08-26T08:37:10.635Z,1005.03
2022-08-26T08:38:08.633Z,1005.06
2022-08-26T08:39:08.510Z,1005.03
2022-08-26T08:40:08.498Z,1005.03
2022-08-26T08:41:08.469Z,1004.98
2022-08-26T08:42:08.447Z,1004.99
2022-08-26T08:43:08.546Z,1004.97
2022-08-26T08:44:08.420Z,1004.99
2022-08-26T08:45:08.452Z,1004.99
2022-08-26T08:46:08.426Z,1004.96
2022-08-26T08:47:08.401Z,1004.97
2022-08-26T08:48:08.479Z,1004.99
2022-08-26T08:49:08.382Z,1004.97
2022-08-26T08:50:08.361Z,1004.98
2022-08-26T08:51:08.380Z,1004.96
2022-08-26T08:52:08.341Z,1004.96
2022-08-26T08:53:09.004Z,1005.01
2022-08-26T08:54:08.321Z,1004.98
2022-08-26T08:55:10.381Z,1004.93
2022-08-26T08:56:08.305Z,1004.96
2022-08-26T08:57:08.323Z,1004.93
2022-08-26T08:58:08.530Z,1004.91
2022-08-26T08:59:08.276Z,1004.93
2022-08-26T09:00:08.265Z,1004.89
2022-08-26T09:01:08.273Z,1004.87
2022-08-26T09:02:08.274Z,1004.89
2022-08-26T09:03:08.257Z,1004.92
2022-08-26T09:04:08.218Z,1004.87
2022-08-26T09:05:08.244Z,1004.86
2022-08-26T09:06:08.205Z,1004.89
2022-08-26T09:07:08.198Z,1004.86
2022-08-26T09:08:08.355Z,1004.85
2022-08-26T09:09:08.208Z,1004.83
2022-08-26T09:10:08.159Z,1004.85
2022-08-26T09:11:08.149Z,1004.80
2022-08-26T09:12:08.140Z,1004.82
2022-08-26T09:13:08.129Z,1004.79
2022-08-26T09:14:08.120Z,1004.81
2022-08-26T09:15:08.142Z,1004.85
2022-08-26T09:16:08.101Z,1004.85
2022-08-26T09:17:08.117Z,1004.87
2022-08-26T09:18:08.195Z,1004.84
2022-08-26T09:19:08.074Z,1004.84
2022-08-26T09:20:08.064Z,1004.84
2022-08-26T09:21:08.075Z,1004.83
2022-08-26T09:22:09.727Z,1004.86
2022-08-26T09:23:08.209Z,1004.78
2022-08-26T09:24:08.036Z,1004.81
2022-08-26T09:25:08.016Z,1004.76
2022-08-26T09:26:08.004Z,1004.79
2022-08-26T09:27:08.016Z,1004.78
2022-08-26T09:28:08.075Z,1004.74
2022-08-26T09:29:08.005Z,1004.77
2022-08-26T09:30:07.957Z,1004.73
2022-08-26T09:31:11.222Z,1004.69
2022-08-26T09:32:07.929Z,1004.75
2022-08-26T09:33:10.180Z,1004.70
2022-08-26T09:34:07.921Z,1004.66
2022-08-26T09:35:07.918Z,1004.65
2022-08-26T09:36:07.889Z,1004.64
2022-08-26T09:37:07.881Z,1004.62
2022-08-26T09:38:11.663Z,1004.60
2022-08-26T09:39:07.887Z,1004.54
2022-08-26T09:40:07.902Z,1004.51
2022-08-26T09:41:07.841Z,1004.49
2022-08-26T09:42:07.831Z,1004.51
2022-08-26T09:43:07.821Z,1004.50
2022-08-26T09:44:07.810Z,1004.49
2022-08-26T09:45:08.831Z,1004.46
2022-08-26T09:46:07.807Z,1004.47
2022-08-26T09:47:07.780Z,1004.44
2022-08-26T09:48:07.971Z,1004.45
2022-08-26T09:49:07.764Z,1004.49
2022-08-26T09:50:09.627Z,1004.48
2022-08-26T09:51:07.818Z,1004.48
2022-08-26T09:52:07.716Z,1004.47
2022-08-26T09:53:09.874Z,1004.50
2022-08-26T09:54:08.706Z,1004.51
2022-08-26T09:55:07.698Z,1004.49
2022-08-26T09:56:07.692Z,1004.45
2022-08-26T09:57:07.698Z,1004.50
2022-08-26T09:58:07.990Z,1004.42
2022-08-26T09:59:07.657Z,1004.45
2022-08-26T10:00:07.646Z,1004.44
2022-08-26T10:01:07.697Z,1004.43
2022-08-26T10:02:07.679Z,1004.45
2022-08-26T10:03:07.725Z,1004.44
2022-08-26T10:04:07.660Z,1004.45
2022-08-26T10:05:09.648Z,1004.39
2022-08-26T10:06:07.634Z,1004.40
2022-08-26T10:07:07.589Z,1004.40
2022-08-26T10:08:07.561Z,1004.38
2022-08-26T10:09:09.906Z,1004.39
2022-08-26T10:10:07.551Z,1004.42
2022-08-26T10:11:07.533Z,1004.39
2022-08-26T10:12:07.531Z,1004.39
2022-08-26T10:13:07.665Z,1004.49
2022-08-26T10:14:07.504Z,1004.46
2022-08-26T10:15:07.533Z,1004.43
2022-08-26T10:16:07.488Z,1004.46
2022-08-26T10:17:07.474Z,1004.49
2022-08-26T10:18:07.603Z,1004.48
2022-08-26T10:19:07.459Z,1004.47
2022-08-26T10:20:22.663Z,1004.48
2022-08-26T10:21:08.458Z,1004.52
2022-08-26T10:22:07.419Z,1004.48
2022-08-26T10:23:07.431Z,1004.40
2022-08-26T10:24:07.408Z,1004.40
2022-08-26T10:25:07.398Z,1004.39
2022-08-26T10:26:07.389Z,1004.42
2022-08-26T10:27:07.401Z,1004.39
2022-08-26T10:28:07.475Z,1004.37
2022-08-26T10:29:07.361Z,1004.38
2022-08-26T10:30:07.341Z,1004.37
2022-08-26T10:31:07.340Z,1004.34
2022-08-26T10:32:07.369Z,1004.39
2022-08-26T10:33:07.436Z,1004.38
2022-08-26T10:34:07.300Z,1004.35
2022-08-26T10:35:07.294Z,1004.31
2022-08-26T10:36:07.283Z,1004.31
2022-08-26T10:37:14.865Z,1004.29
2022-08-26T10:38:08.459Z,1004.28
2022-08-26T10:39:07.254Z,1004.28
2022-08-26T10:40:07.309Z,1004.30
2022-08-26T10:41:09.671Z,1004.31
2022-08-26T10:42:07.216Z,1004.26
2022-08-26T10:43:11.277Z,1004.25
2022-08-26T10:44:07.226Z,1004.20
2022-08-26T10:45:07.590Z,1004.23
2022-08-26T10:46:07.332Z,1004.21
2022-08-26T10:47:07.168Z,1004.18
2022-08-26T10:48:07.482Z,1004.19
2022-08-26T10:49:07.158Z,1004.18
2022-08-26T10:50:07.169Z,1004.14
2022-08-26T10:51:07.129Z,1004.15
2022-08-26T10:52:15.166Z,1004.10
2022-08-26T10:53:08.695Z,1004.18
2022-08-26T10:54:07.100Z,1004.15
2022-08-26T10:55:07.088Z,1004.16
2022-08-26T10:56:15.666Z,1004.07
2022-08-26T10:57:09.630Z,1004.07
2022-08-26T10:58:09.220Z,1004.04
2022-08-26T10:59:07.052Z,1004.05
2022-08-26T11:00:08.043Z,1004.03
2022-08-26T11:01:10.297Z,1004.05
2022-08-26T11:02:07.038Z,1004.07
2022-08-26T11:03:09.460Z,1004.05
2022-08-26T11:04:08.037Z,1004.03
2022-08-26T11:05:06.984Z,1004.03
2022-08-26T11:06:06.967Z,1003.99
2022-08-26T11:07:06.967Z,1004.00
2022-08-26T11:08:07.197Z,1003.99
2022-08-26T11:09:06.936Z,1003.94
2022-08-26T11:10:06.924Z,1003.92
2022-08-26T11:11:06.916Z,1003.92
2022-08-26T11:12:06.960Z,1003.90
2022-08-26T11:13:06.945Z,1003.85
2022-08-26T11:14:06.929Z,1003.88
2022-08-26T11:15:06.879Z,1003.82
2022-08-26T11:16:06.878Z,1003.88
2022-08-26T11:17:06.851Z,1003.84
2022-08-26T11:18:06.879Z,1003.81
2022-08-26T11:19:06.844Z,1003.80
2022-08-26T11:20:13.374Z,1003.86
2022-08-26T11:21:10.237Z,1003.85
2022-08-26T11:22:06.799Z,1003.83
2022-08-26T11:23:06.794Z,1003.82
2022-08-26T11:24:06.783Z,1003.78
2022-08-26T11:25:06.776Z,1003.73
2022-08-26T11:26:06.782Z,1003.71
2022-08-26T11:27:06.755Z,1003.69
2022-08-26T11:28:06.807Z,1003.75
2022-08-26T11:29:12.201Z,1003.78
2022-08-26T11:30:07.741Z,1003.75
2022-08-26T11:31:06.774Z,1003.79
2022-08-26T11:32:06.724Z,1003.69
2022-08-26T11:33:06.774Z,1003.69
2022-08-26T11:34:06.678Z,1003.69
2022-08-26T11:35:06.668Z,1003.68
2022-08-26T11:36:12.430Z,1003.63
2022-08-26T11:37:07.694Z,1003.63
2022-08-26T11:38:06.637Z,1003.58
2022-08-26T11:39:06.628Z,1003.58
2022-08-26T11:40:06.651Z,1003.56
2022-08-26T11:41:06.601Z,1003.62
2022-08-26T11:42:06.592Z,1003.62
2022-08-26T11:43:06.611Z,1003.60
2022-08-26T11:44:06.573Z,1003.56
2022-08-26T11:45:06.570Z,1003.52
2022-08-26T11:46:06.583Z,1003.52
2022-08-26T11:47:06.545Z,1003.52
2022-08-26T11:48:07.738Z,1003.49
2022-08-26T11:49:06.526Z,1003.49
2022-08-26T11:50:06.510Z,1003.47
2022-08-26T11:51:06.505Z,1003.54
2022-08-26T11:52:06.495Z,1003.52
2022-08-26T11:53:06.593Z,1003.46
2022-08-26T11:54:06.497Z,1003.46
2022-08-26T11:55:06.467Z,1003.44
2022-08-26T11:56:06.448Z,1003.45
2022-08-26T11:57:11.848Z,1003.46
2022-08-26T11:58:07.680Z,1003.43
2022-08-26T11:59:06.427Z,1003.45
2022-08-26T12:00:07.405Z,1003.46
2022-08-26T12:01:06.412Z,1003.47
2022-08-26T12:02:06.390Z,1003.45
2022-08-26T12:03:06.573Z,1003.45
2022-08-26T12:04:06.516Z,1003.46
2022-08-26T12:05:06.368Z,1003.44